Terminal Aerodrome Forecast
Issued by NWS Goodland, KS

Home | Current Version | Previous Version | Text Only | Print | Product List | Glossary On
Versions: 1 2 3 4 5 6 7 8 9 10 11 12 13 14 15 16 17 18 19
000
FTUS43 KGLD 010840 AAA
TAFGLD
TAF AMD
KGLD 010840Z 0109/0206 34019G27KT P6SM BKN028 OVC070
     FM011300 36024G33KT P6SM SCT020 BKN035
     FM011800 36023G30KT P6SM BKN025
     FM020000 35015KT P6SM SCT050
     FM020200 30010KT P6SM FEW050=

USA.gov is the U.S. government's official web portal to all federal, state and local government web resources and services.